• Join FlightAware (Why Join?)
  • Login
  • US Flag 
Rudolph Flight #1: Arrived! 
02:20AM EST


 

Airport Tracker/Info


-or-


 

Live Flight TrackerFlight Track Log ✈ ASQ4293 ✈ 31-Jan-2014 ✈ KIND - KIAH

Flight Track Log - Related Links

Times and Time Zones

All times are in EST time to prevent confusion due to time zone crossing. See the ASQ4293 flight status page for this flight to view local times or setup timezone preferences in your user account.

Time Position Orientation Groundspeed Altitude Reporting Facility
EST Latitude Longitude Course Direction KTS MPH feet Rate Location/Type
09:31AM 39.7000 -86.3000 201° Southwest 157 181 1,400  Level Indianapolis TRACON
09:32AM 39.6833 -86.3167 218° Southwest 165 190 2,400 1,740 Climbing Indianapolis TRACON
09:33AM 39.6333 -86.3500 207° Southwest 218 251 3,900 1,980 Climbing Indianapolis TRACON
09:34AM 39.4467 -86.4281 204° Southwest  Level FlightAware Approximate
09:34AM 39.5544 -86.3956 204° Southwest 251 289 6,800  Level Indianapolis Center
09:35AM 39.3568 -86.4794 204° Southwest  Level FlightAware Approximate
09:35AM 39.4886 -86.4303 202° Southwest 258 297 10,000  Level Indianapolis Center
09:36AM 39.2654 -86.5257 201° Southwest  Level FlightAware Approximate
09:36AM 39.4267 -86.4633 202° Southwest 246 283 11,500  Level Indianapolis Center
09:37AM 39.3353 -86.5119 202° Southwest 293 337 12,900 1,440 Climbing Indianapolis Center
09:38AM 39.2547 -86.5542 202° Southwest 308 354 14,500 1,500 Climbing Indianapolis Center
09:39AM 39.1719 -86.5981 202° Southwest 318 366 16,000 1,440 Climbing Indianapolis Center
09:40AM 39.0933 -86.6422 204° Southwest 325 374 17,500 1,560 Climbing Indianapolis Center
09:41AM 38.9947 -86.7019 205° Southwest 325 374 19,200 1,740 Climbing Indianapolis Center
09:42AM 38.9128 -86.7514 205° Southwest 325 374 21,200 1,920 Climbing Indianapolis Center
09:43AM 38.8350 -86.7981 205° Southwest 312 359 23,200 1,620 Climbing Indianapolis Center
09:44AM 38.7592 -86.8453 206° Southwest 303 349 24,600 1,320 Climbing Indianapolis Center
09:45AM 38.7053 -86.9217 228° Southwest 290 334 26,000 1,260 Climbing Indianapolis Center
09:46AM 38.6494 -86.9994 227° Southwest 294 338 27,300 1,200 Climbing Indianapolis Center
09:47AM 38.5967 -87.0750 228° Southwest 288 331 28,600 1,380 Climbing Indianapolis Center
09:48AM 38.5336 -87.1633 228° Southwest 282 325 30,200 1,380 Climbing Indianapolis Center
09:49AM 38.4828 -87.2350 228° Southwest 276 318 31,500 1,140 Climbing Indianapolis Center
09:50AM 38.4328 -87.3053 228° Southwest 270 311 32,600 960 Climbing Indianapolis Center
09:51AM 38.3825 -87.3758 228° Southwest 269 310 33,600 900 Climbing Indianapolis Center
09:52AM 38.3322 -87.4456 227° Southwest 270 311 34,500 840 Climbing Indianapolis Center
09:53AM 38.2825 -87.5156 228° Southwest 266 306 35,400 720 Climbing Indianapolis Center
09:54AM 38.2228 -87.5986 228° Southwest 265 305 36,000 240 Climbing Indianapolis Center
09:55AM 38.1711 -87.6697 227° Southwest 270 311 36,000  Level Indianapolis Center
09:57AM 38.1161 -87.7464 228° Southwest 286 329 36,000  Level Indianapolis Center
09:58AM 38.0567 -87.8272 227° Southwest 304 350 36,000  Level Indianapolis Center
09:59AM 37.9953 -87.9125 228° Southwest 324 373 36,000  Level Indianapolis Center
10:00AM 37.9317 -87.9992 227° Southwest 333 383 36,000  Level Indianapolis Center
10:01AM 37.8692 -88.0864 228° Southwest 335 386 36,000  Level Indianapolis Center
10:02AM 37.7936 -88.1892 227° Southwest 331 381 36,000  Level Indianapolis Center
10:03AM 37.7300 -88.2747 227° Southwest 333 383 36,000  Level Indianapolis Center
10:04AM 37.6661 -88.3608 227° Southwest 334 384 36,000  Level Indianapolis Center
10:05AM 37.5936 -88.4389 220° Southwest 338 389 36,000  Level Indianapolis Center
10:06AM 37.5172 -88.5139 218° Southwest 346 398 36,000  Level Indianapolis Center
10:07AM 37.4428 -88.5908 219° Southwest 346 398 36,000  Level Indianapolis Center
10:08AM 37.3667 -88.6678 219° Southwest 347 399 36,000  Level Indianapolis Center
10:09AM 37.2742 -88.7589 218° Southwest 350 403 36,000  Level Indianapolis Center
10:10AM 37.1986 -88.8369 219° Southwest 350 403 36,000  Level Indianapolis Center
10:11AM 37.1200 -88.9144 218° Southwest 350 403 36,000  Level Indianapolis Center
10:12AM 37.0425 -88.9917 219° Southwest 352 405 36,000  Level Indianapolis Center
10:14AM 36.9331 -89.1011 219° Southwest 352 405 36,000  Level Memphis Center
10:15AM 36.8561 -89.1781 219° Southwest 355 409 36,000  Level Memphis Center
10:16AM 36.7628 -89.2706 218° Southwest 356 410 36,000  Level Memphis Center
10:17AM 36.6864 -89.3464 219° Southwest 355 409 36,000  Level Memphis Center
10:18AM 36.6083 -89.4225 218° Southwest 357 411 36,000  Level Memphis Center
10:19AM 36.5314 -89.4989 219° Southwest 359 413 36,000  Level Memphis Center
10:20AM 36.4542 -89.5758 219° Southwest 360 414 36,000  Level Memphis Center
10:21AM 36.3600 -89.6667 218° Southwest 361 415 36,000  Level Memphis Center
10:22AM 36.2814 -89.7425 218° Southwest 360 414 36,000  Level Memphis Center
10:23AM 36.2028 -89.8183 218° Southwest 360 414 36,000  Level Memphis Center
10:24AM 36.1233 -89.8950 218° Southwest 361 415 36,000  Level Memphis Center
10:25AM 36.0453 -89.9708 218° Southwest 359 413 36,000  Level Memphis Center
10:26AM 35.9500 -90.0631 218° Southwest 362 417 36,000  Level Memphis Center
10:27AM 35.8706 -90.1403 218° Southwest 363 418 36,000  Level Memphis Center
10:28AM 35.7889 -90.2172 217° Southwest 367 422 36,000  Level Memphis Center
10:29AM 35.7092 -90.2939 218° Southwest 365 420 36,000  Level Memphis Center
10:30AM 35.6225 -90.3764 218° Southwest 364 419 36,000  Level Memphis Center
10:31AM 35.5417 -90.4528 218° Southwest 364 419 36,000  Level Memphis Center
10:32AM 35.4606 -90.5297 218° Southwest 366 421 36,000  Level Memphis Center
10:33AM 35.3783 -90.6069 217° Southwest 368 423 36,000  Level Memphis Center
10:34AM 35.2964 -90.6850 218° Southwest 370 426 36,000  Level Memphis Center
10:35AM 35.1983 -90.7753 217° Southwest 374 430 36,000  Level Memphis Center
10:36AM 35.1161 -90.8536 218° Southwest 373 429 36,000  Level Memphis Center
10:37AM 35.0328 -90.9322 218° Southwest 375 432 36,000  Level Memphis Center
10:38AM 34.9483 -91.0100 217° Southwest 376 433 36,000  Level Memphis Center
10:39AM 34.8639 -91.0883 217° Southwest 378 435 36,000  Level Memphis Center
10:40AM 34.7806 -91.1661 217° Southwest 377 434 36,000  Level Memphis Center
10:41AM 34.6819 -91.2575 217° Southwest 378 435 36,000  Level Memphis Center
10:42AM 34.5964 -91.3350 217° Southwest 379 436 36,000  Level Memphis Center
10:44AM 34.5108 -91.4142 217° Southwest 381 438 36,000  Level Memphis Center
10:45AM 34.4253 -91.4925 217° Southwest 383 441 36,000  Level Memphis Center
10:46AM 34.3392 -91.5706 217° Southwest 384 442 36,000  Level Memphis Center
10:47AM 34.2531 -91.6494 217° Southwest 383 441 36,000  Level Memphis Center
10:48AM 34.1600 -91.7333 217° Southwest 383 441 36,000  Level Memphis Center
10:49AM 34.0747 -91.8119 217° Southwest 384 442 36,000  Level Memphis Center
10:50AM 33.9886 -91.8889 217° Southwest 386 444 36,000  Level Memphis Center
10:51AM 33.9036 -91.9678 218° Southwest 385 443 36,000  Level Memphis Center
10:52AM 33.8167 -92.0436 216° Southwest 385 443 36,000  Level Memphis Center
10:53AM 33.7142 -92.1364 217° Southwest 385 443 36,000  Level Memphis Center
10:55AM 33.5417 -92.2908 217° Southwest 386 444 36,000  Level Memphis Center
10:56AM 33.4536 -92.3694 217° Southwest 390 449 36,000  Level Memphis Center
10:57AM 33.3436 -92.4253 203° Southwest 404 465 36,000  Level Fort Worth Center
10:58AM 33.2289 -92.4461 189° South 415 478 36,000  Level Fort Worth Center
10:59AM 33.1139 -92.4672 189° South 417 480 36,000  Level Fort Worth Center
11:00AM 32.9981 -92.4883 189° South 420 483 36,000  Level Fort Worth Center
11:01AM 32.8839 -92.5139 191° South 418 481 36,000  Level Fort Worth Center
11:02AM 32.7694 -92.5350 189° South 416 479 36,000  Level Fort Worth Center
11:03AM 32.6297 -92.5592 188° South 420 483 36,000  Level Fort Worth Center
11:04AM 32.5133 -92.5789 188° South 422 486 36,000  Level Fort Worth Center
11:05AM 32.3978 -92.6011 189° South 421 484 36,000  Level Fort Worth Center
11:06AM 32.2828 -92.6219 189° South 419 482 36,000  Level Fort Worth Center
11:07AM 32.1653 -92.6422 188° South 424 488 36,000  Level Fort Worth Center
11:08AM 32.0486 -92.6625 188° South 424 488 36,000  Level Fort Worth Center
11:09AM 31.9250 -92.7244 203° Southwest 411 473 36,000  Level Fort Worth Center
11:10AM 31.8389 -92.8086 220° Southwest 406 467 36,000  Level Fort Worth Center
11:11AM 31.7525 -92.8911 219° Southwest 404 465 36,000  Level Fort Worth Center
11:12AM 31.6667 -92.9747 220° Southwest 403 464 36,000  Level Fort Worth Center
11:13AM 31.5619 -93.0761 220° Southwest 408 470 36,000  Level Fort Worth Center
11:15AM 31.4733 -93.1600 219° Southwest 411 473 36,000  Level Fort Worth Center
11:16AM 31.3861 -93.2439 219° Southwest 410 472 36,000  Level Fort Worth Center
11:17AM 31.2992 -93.3278 220° Southwest 408 470 36,000  Level Fort Worth Center
11:18AM 31.2106 -93.4106 219° Southwest 409 471 36,000 -780 Level Fort Worth Center
11:19AM 31.1042 -93.5111 219° Southwest 410 472 34,500 -1,860 Descending Fort Worth Center
11:20AM 31.0183 -93.5925 219° Southwest 403 464 32,200 -2,160 Descending Fort Worth Center
11:21AM 30.9169 -93.6878 219° Southwest 399 459 29,600 -2,160 Descending Houston Center
11:22AM 30.8275 -93.7719 219° Southwest 409 471 27,300 -2,400 Descending Houston Center
11:23AM 30.7167 -93.8778 219° Southwest 428 493 24,700 -2,340 Descending Houston Center
11:24AM 30.6289 -93.9597 219° Southwest 412 474 22,500 -2,220 Descending Houston Center
11:25AM 30.5442 -94.0397 219° Southwest 397 457 20,200 -2,220 Descending Houston Center
11:26AM 30.4825 -94.0967 219° Southwest 392 451 18,700 -2,160 Descending Houston Center
11:26AM 30.4608 -94.1169 219° Southwest 390 449 18,000 -2,280 Descending Houston Center
11:27AM 30.3961 -94.1761 218° Southwest 376 433 16,400 -1,980 Descending Houston Center
11:27AM 30.3803 -94.1925 222° Southwest 377 434 16,000 -2,100 Descending Houston Center
11:28AM 30.3083 -94.2242 201° Southwest 334 384 14,300 -2,400 Descending Houston Center
11:28AM 30.2761 -94.2339 195° South 339 390 13,500 -1,860 Descending Houston Center
11:29AM 30.2394 -94.2914 234° Southwest 326 375 12,400 -1,500 Descending Houston Center
11:29AM 30.2242 -94.3197 238° Southwest 325 374 12,000 -420 Descending Houston Center
11:30AM 30.1911 -94.3775 237° Southwest 319 367 12,000 -420 Level Houston Center
11:30AM 30.1794 -94.4075 246° West 320 368 11,600 -1,020 Descending Houston Center
11:31AM 30.1564 -94.4717 247° West 306 352 11,000 -900 Descending Houston Center
11:31AM 30.1503 -94.4931 252° West 304 350 10,700 -1,080 Descending Houston Center
11:32AM 30.1247 -94.5578 245° Southwest 271 312 9,900 -1,200 Descending Houston Center
11:32AM 30.1150 -94.5903 251° West 279 321 9,500 -1,020 Descending Houston Center
11:33AM 30.0994 -94.6433 251° West 280 322 8,900 -1,080 Descending Houston Center
11:33AM 30.0900 -94.6753 251° West 280 322 8,400 -900 Descending Houston Center
11:34AM 30.0736 -94.7239 249° West 269 310 8,000 -720 Descending Houston Center
11:34AM 30.0661 -94.7556 255° West 269 310 7,700 -1,020 Descending Houston Center
11:35AM 30.0497 -94.8042 249° West 264 304 7,000 -1,080 Descending Houston Center
11:35AM 30.0425 -94.8344 255° West 263 303 6,600 -1,200 Descending Houston Center
11:36AM 30.0294 -94.8767 250° West 256 295 5,900 -1,080 Descending Houston Center
11:37AM 30.0214 -94.9117 255° West 256 295 5,500 -840 Descending Houston Center
11:37AM 30.0094 -94.9542 252° West 220 253 5,100 -540 Descending Houston Center
11:38AM 29.9992 -94.9914 252° West 226 260 5,000 -120 Descending Houston Center
11:38AM 29.9922 -95.0167 252° West 209 241 5,000 -300 Level Houston Center
11:39AM 29.9925 -95.0553 270° West 208 239 4,700 -720 Descending Houston Center
11:39AM 29.9944 -95.0839 274° West 205 236 4,300 -1,020 Descending Houston Center
11:40AM 29.9922 -95.1189 266° West 202 232 3,700 -1,140 Descending Houston Center
11:40AM 29.9919 -95.1469 269° West 191 220 3,200 -960 Descending Houston Center
11:41AM 29.9928 -95.1778 272° West 195 224 2,700 -900 Descending Houston Center
11:41AM 29.9928 -95.2022 270° West 160 184 2,300 -900 Descending Houston Center
11:42AM 29.9933 -95.2303 271° West 180 207 1,800 -900 Descending Houston Center
11:42AM 29.9936 -95.2553 271° West 161 185 1,400 -1,020 Descending Houston Center
11:43AM 29.9925 -95.2881 268° West 164 189 800 -840 Descending Houston Center
11:43AM 29.9936 -95.3036 275° West 144 166 600 -420 Descending Houston Center
11:44AM 29.9922 -95.3278 266° West 154 177 400 -300 Descending Houston Center